createdAt,value
2017-09-24T00:01:06.847Z,22.20
2017-09-24T00:03:34.359Z,22.40
2017-09-24T00:06:02.634Z,21.05
2017-09-24T00:08:30.914Z,22.00
2017-09-24T00:10:59.174Z,21.58
2017-09-24T00:13:26.695Z,21.67
2017-09-24T00:15:54.209Z,23.08
2017-09-24T00:18:22.504Z,23.25
2017-09-24T00:20:50.017Z,23.15
2017-09-24T00:23:17.541Z,22.73
2017-09-24T00:25:45.051Z,24.40
2017-09-24T00:28:12.574Z,23.12
2017-09-24T00:30:40.077Z,22.25
2017-09-24T00:33:08.357Z,24.37
2017-09-24T00:35:35.898Z,23.20
2017-09-24T00:38:03.417Z,23.67
2017-09-24T00:40:30.918Z,23.15
2017-09-24T00:42:58.448Z,23.90
2017-09-24T00:45:25.949Z,23.87
2017-09-24T00:47:54.258Z,23.70
2017-09-24T00:50:21.765Z,24.50
2017-09-24T00:52:49.275Z,24.48
2017-09-24T00:55:16.790Z,25.80
2017-09-24T00:57:44.294Z,25.25
2017-09-24T01:00:11.812Z,26.05
2017-09-24T01:02:39.309Z,23.52
2017-09-24T01:05:06.874Z,24.83
2017-09-24T01:07:34.382Z,24.98
2017-09-24T01:10:01.904Z,23.05
2017-09-24T01:12:29.402Z,24.33
2017-09-24T01:14:56.929Z,24.45
2017-09-24T01:17:24.421Z,22.23
2017-09-24T01:19:51.958Z,23.52
2017-09-24T01:22:19.454Z,23.48
2017-09-24T01:24:47.728Z,22.95
2017-09-24T01:27:16.146Z,21.80
2017-09-24T01:29:43.651Z,22.45
2017-09-24T01:32:11.178Z,22.60
2017-09-24T01:34:38.674Z,23.38
2017-09-24T01:37:06.194Z,23.48
2017-09-24T01:39:33.693Z,22.62
2017-09-24T01:42:01.194Z,22.15
2017-09-24T01:44:28.715Z,22.08
2017-09-24T01:46:56.214Z,23.45
2017-09-24T01:49:23.726Z,23.35
2017-09-24T01:51:51.231Z,23.30
2017-09-24T01:54:18.761Z,22.85
2017-09-24T01:56:47.026Z,22.52
2017-09-24T01:59:14.527Z,22.77
2017-09-24T02:01:42.042Z,22.73
2017-09-24T02:04:09.538Z,21.85
2017-09-24T02:06:37.054Z,22.05
2017-09-24T02:09:04.558Z,23.05
2017-09-24T02:11:32.101Z,24.63
2017-09-24T02:14:00.369Z,23.17
2017-09-24T02:16:28.654Z,23.30
2017-09-24T02:18:56.935Z,22.70
2017-09-24T02:21:24.439Z,24.92
2017-09-24T02:23:51.962Z,21.52
2017-09-24T02:26:19.469Z,22.80
2017-09-24T02:28:47.014Z,22.35
2017-09-24T02:31:14.573Z,21.83
2017-09-24T02:33:42.850Z,22.73
2017-09-24T02:36:10.511Z,21.87
2017-09-24T02:38:38.039Z,22.33
2017-09-24T02:41:05.554Z,22.95
2017-09-24T02:43:33.060Z,22.25
2017-09-24T02:46:00.590Z,22.90
2017-09-24T02:48:28.860Z,24.35
2017-09-24T02:50:56.354Z,23.95
2017-09-24T02:53:23.869Z,23.25
2017-09-24T02:55:51.371Z,23.45
2017-09-24T02:58:18.885Z,22.80
2017-09-24T03:00:46.385Z,24.58
2017-09-24T03:03:13.907Z,25.30
2017-09-24T03:05:41.425Z,23.55
2017-09-24T03:08:08.926Z,24.67
2017-09-24T03:10:36.458Z,25.40
2017-09-24T03:13:03.968Z,24.60
2017-09-24T03:15:32.260Z,24.02
2017-09-24T03:17:59.757Z,23.73
2017-09-24T03:20:27.277Z,24.23
2017-09-24T03:22:54.791Z,24.30
2017-09-24T03:25:22.299Z,23.33
2017-09-24T03:27:49.816Z,24.42
2017-09-24T03:30:17.327Z,25.02
2017-09-24T03:32:45.637Z,23.85
2017-09-24T03:35:13.197Z,24.10
2017-09-24T03:37:40.730Z,24.52
2017-09-24T03:40:08.274Z,26.48
2017-09-24T03:42:35.786Z,24.92
2017-09-24T03:45:03.310Z,25.30
2017-09-24T03:47:30.835Z,25.52
2017-09-24T03:49:59.113Z,25.12
2017-09-24T03:52:27.384Z,23.35
2017-09-24T03:54:55.666Z,24.45
2017-09-24T03:57:23.170Z,24.17
2017-09-24T03:59:50.685Z,23.62
2017-09-24T04:02:18.257Z,24.02
2017-09-24T04:04:45.769Z,23.00
2017-09-24T04:07:13.491Z,21.80
2017-09-24T04:09:44.850Z,23.27
2017-09-24T04:12:12.358Z,23.12
2017-09-24T04:14:39.867Z,22.25
2017-09-24T04:17:07.378Z,22.15
2017-09-24T04:19:34.882Z,22.90
2017-09-24T04:22:02.389Z,23.85
2017-09-24T04:24:29.910Z,22.55
2017-09-24T04:26:57.441Z,22.17
2017-09-24T04:29:24.950Z,21.65
2017-09-24T04:31:53.221Z,21.12
2017-09-24T04:34:20.754Z,22.70
2017-09-24T04:36:48.250Z,20.75
2017-09-24T04:39:15.782Z,20.70
2017-09-24T04:41:43.286Z,20.25
2017-09-24T04:44:10.826Z,22.52
2017-09-24T04:46:39.102Z,23.00
2017-09-24T04:49:06.605Z,23.98
2017-09-24T04:51:34.113Z,23.23
2017-09-24T04:54:01.621Z,21.83
2017-09-24T04:56:29.134Z,22.58
2017-09-24T04:58:56.758Z,23.05
2017-09-24T05:01:24.269Z,22.52
2017-09-24T05:03:52.753Z,23.15
2017-09-24T05:06:20.274Z,23.77
2017-09-24T05:08:47.775Z,22.62
2017-09-24T05:11:15.297Z,22.08
2017-09-24T05:13:42.806Z,22.30
2017-09-24T05:16:10.343Z,23.67
2017-09-24T05:18:38.617Z,22.10
2017-09-24T05:21:06.134Z,22.60
2017-09-24T05:23:33.750Z,23.38
2017-09-24T05:26:01.292Z,22.87
2017-09-24T05:28:29.561Z,22.83
2017-09-24T05:30:57.839Z,23.70
2017-09-24T05:33:25.468Z,22.90
2017-09-24T05:35:52.957Z,22.15
2017-09-24T05:38:20.471Z,23.60
2017-09-24T05:40:49.176Z,22.80
2017-09-24T05:43:16.697Z,23.17
2017-09-24T05:45:44.229Z,22.08
2017-09-24T05:48:11.729Z,23.67
2017-09-24T05:50:40.026Z,23.23
2017-09-24T05:53:07.538Z,23.55
2017-09-24T05:55:35.047Z,23.08
2017-09-24T05:58:02.605Z,23.58
2017-09-24T06:00:30.106Z,23.35
2017-09-24T06:02:57.621Z,23.92
2017-09-24T06:05:25.118Z,23.58
2017-09-24T06:07:52.621Z,23.45
2017-09-24T06:10:20.130Z,23.67
2017-09-24T06:12:47.626Z,22.85
2017-09-24T06:15:15.150Z,23.85
2017-09-24T06:17:42.653Z,26.40
2017-09-24T06:20:10.170Z,27.20
2017-09-24T06:22:37.681Z,28.48
2017-09-24T06:25:05.189Z,28.08
2017-09-24T06:27:32.726Z,26.05
2017-09-24T06:30:00.233Z,26.17
2017-09-24T06:32:27.726Z,29.08
2017-09-24T06:34:55.239Z,27.83
2017-09-24T06:37:23.513Z,28.23
2017-09-24T06:39:51.793Z,29.95
2017-09-24T06:42:20.054Z,29.35
2017-09-24T06:44:47.558Z,28.48
2017-09-24T06:47:15.083Z,28.80
2017-09-24T06:49:43.346Z,30.12
2017-09-24T06:52:10.906Z,31.10
2017-09-24T06:54:38.409Z,28.87
2017-09-24T06:57:05.957Z,31.05
2017-09-24T06:59:33.486Z,29.37
2017-09-24T07:02:01.795Z,30.37
2017-09-24T07:04:29.319Z,29.55
2017-09-24T07:06:56.822Z,28.48
2017-09-24T07:09:24.375Z,32.03
2017-09-24T07:11:51.912Z,34.50
2017-09-24T07:14:19.439Z,31.45
2017-09-24T07:16:48.467Z,31.70
2017-09-24T07:19:16.731Z,32.70
2017-09-24T07:21:44.258Z,32.38
2017-09-24T07:24:11.794Z,33.13
2017-09-24T07:26:39.311Z,36.15
2017-09-24T07:29:07.598Z,36.95
2017-09-24T07:31:35.916Z,35.80
2017-09-24T07:34:03.430Z,35.33
2017-09-24T07:36:30.960Z,34.15
2017-09-24T07:38:58.490Z,37.65
2017-09-24T07:41:26.016Z,35.38
2017-09-24T07:43:53.529Z,34.72
2017-09-24T07:46:21.058Z,34.97
2017-09-24T07:48:49.345Z,36.97
2017-09-24T07:51:16.846Z,36.80
2017-09-24T07:53:44.385Z,38.33
2017-09-24T07:56:11.886Z,38.38
2017-09-24T07:58:39.402Z,37.85
2017-09-24T08:01:06.932Z,37.67
2017-09-24T08:03:35.206Z,38.67
2017-09-24T08:06:03.486Z,37.10
2017-09-24T08:08:31.758Z,39.65
2017-09-24T08:11:00.058Z,37.97
2017-09-24T08:13:27.566Z,35.25
2017-09-24T08:15:55.087Z,37.92
2017-09-24T08:18:22.617Z,35.58
2017-09-24T08:20:50.929Z,38.55
2017-09-24T08:23:18.475Z,38.05
2017-09-24T08:25:45.978Z,37.55
2017-09-24T08:28:13.479Z,34.28
2017-09-24T08:30:41.017Z,37.92
2017-09-24T08:33:09.281Z,34.90
2017-09-24T08:35:36.823Z,34.17
2017-09-24T08:38:04.376Z,43.55
2017-09-24T08:40:31.882Z,37.88
2017-09-24T08:43:00.150Z,36.03
2017-09-24T08:45:28.425Z,37.17
2017-09-24T08:47:55.951Z,34.78
2017-09-24T08:50:23.461Z,34.08
2017-09-24T08:52:51.755Z,30.95
2017-09-24T08:55:19.266Z,31.10
2017-09-24T08:57:46.782Z,29.40
2017-09-24T09:00:14.298Z,28.35
2017-09-24T09:02:42.569Z,28.42
2017-09-24T09:05:10.074Z,29.05
2017-09-24T09:07:37.592Z,27.40
2017-09-24T09:10:05.864Z,27.87
2017-09-24T09:12:33.374Z,22.15
2017-09-24T09:15:00.918Z,23.80
2017-09-24T09:17:28.426Z,19.83
2017-09-24T09:19:55.939Z,21.20
2017-09-24T09:22:23.466Z,19.17
2017-09-24T09:24:51.741Z,19.55
2017-09-24T09:27:19.243Z,22.05
2017-09-24T09:29:46.774Z,22.15
2017-09-24T09:32:14.291Z,19.50
2017-09-24T09:34:53.618Z,19.30
2017-09-24T09:37:21.121Z,16.12
2017-09-24T09:39:48.639Z,18.35
2017-09-24T09:42:16.174Z,16.70
2017-09-24T09:44:52.518Z,16.10
2017-09-24T09:47:25.972Z,15.15
2017-09-24T09:49:53.501Z,16.40
2017-09-24T09:52:21.018Z,18.55
2017-09-24T09:54:49.306Z,15.73
2017-09-24T09:57:16.814Z,17.23
2017-09-24T09:59:44.331Z,16.10
2017-09-24T10:02:11.853Z,15.38
2017-09-24T10:04:39.358Z,14.85
2017-09-24T10:07:18.783Z,14.40
2017-09-24T10:09:58.161Z,15.18
2017-09-24T10:12:25.682Z,14.98
2017-09-24T10:14:53.185Z,15.30
2017-09-24T10:17:20.691Z,15.95
2017-09-24T10:19:48.209Z,14.35
2017-09-24T10:22:15.710Z,15.57
2017-09-24T10:24:43.231Z,14.70
2017-09-24T10:27:10.733Z,16.65
2017-09-24T10:29:38.246Z,12.73
2017-09-24T10:32:05.778Z,13.50
2017-09-24T10:34:33.272Z,11.70
2017-09-24T10:37:00.806Z,11.90
2017-09-24T10:39:28.344Z,11.27
2017-09-24T10:41:55.866Z,12.95
2017-09-24T10:44:24.156Z,12.77
2017-09-24T10:46:52.420Z,12.23
2017-09-24T10:49:20.694Z,12.35
2017-09-24T10:51:48.986Z,11.55
2017-09-24T10:54:17.261Z,13.25
2017-09-24T10:56:45.528Z,13.77
2017-09-24T10:59:13.816Z,13.35
2017-09-24T11:01:42.090Z,12.80
2017-09-24T11:04:10.389Z,12.23
2017-09-24T11:06:37.898Z,10.90
2017-09-24T11:09:05.407Z,12.02
2017-09-24T11:11:32.917Z,9.23
2017-09-24T11:14:00.426Z,9.57
2017-09-24T11:16:27.967Z,9.45
2017-09-24T11:18:55.502Z,11.65
2017-09-24T11:21:23.104Z,10.27
2017-09-24T11:23:50.628Z,12.52
2017-09-24T11:26:18.166Z,10.98
2017-09-24T11:28:45.775Z,11.12
2017-09-24T11:31:13.295Z,11.52
2017-09-24T11:33:40.838Z,10.82
2017-09-24T11:36:08.378Z,10.45
2017-09-24T11:38:35.926Z,10.32
2017-09-24T11:41:04.443Z,10.00
2017-09-24T11:43:31.946Z,8.93
2017-09-24T11:46:00.418Z,9.10
2017-09-24T11:48:28.703Z,9.00
2017-09-24T11:50:56.222Z,10.10
2017-09-24T11:53:23.749Z,9.77
2017-09-24T11:55:51.314Z,9.55
2017-09-24T11:58:18.814Z,10.82
2017-09-24T12:00:46.326Z,9.77
2017-09-24T12:03:15.841Z,10.85
2017-09-24T12:05:43.361Z,11.40
2017-09-24T12:08:17.157Z,9.73
2017-09-24T12:10:44.689Z,11.30
2017-09-24T12:13:12.256Z,10.50
2017-09-24T12:15:39.762Z,10.18
2017-09-24T12:18:07.306Z,12.00
2017-09-24T12:20:34.821Z,10.45
2017-09-24T12:23:02.384Z,10.15
2017-09-24T12:25:29.997Z,11.93
2017-09-24T12:27:57.546Z,11.75
2017-09-24T12:30:25.516Z,11.35
2017-09-24T12:32:53.442Z,12.52
2017-09-24T12:35:21.002Z,10.60
2017-09-24T12:37:48.514Z,11.15
2017-09-24T12:40:16.170Z,9.88
2017-09-24T12:42:43.709Z,10.35
2017-09-24T12:45:12.007Z,12.05
2017-09-24T12:47:39.583Z,9.38
2017-09-24T12:50:07.900Z,9.02
2017-09-24T12:52:35.422Z,8.55
2017-09-24T12:55:02.966Z,8.85
2017-09-24T12:57:30.525Z,9.25
2017-09-24T12:59:58.102Z,10.02
2017-09-24T13:02:25.676Z,8.90
2017-09-24T13:04:53.215Z,9.70
2017-09-24T13:07:20.761Z,9.50
2017-09-24T13:09:48.291Z,10.10
2017-09-24T13:12:17.478Z,8.95
2017-09-24T13:14:45.018Z,10.07
2017-09-24T13:17:12.570Z,9.70
2017-09-24T13:19:40.088Z,8.68
2017-09-24T13:22:07.603Z,7.62
2017-09-24T13:24:35.142Z,8.85
2017-09-24T13:27:02.662Z,8.65
2017-09-24T13:29:30.195Z,8.35
2017-09-24T13:31:57.695Z,8.85
2017-09-24T13:34:25.262Z,8.90
2017-09-24T13:36:52.798Z,8.38
2017-09-24T13:39:20.303Z,8.30
2017-09-24T13:41:48.684Z,9.57
2017-09-24T13:44:16.206Z,9.60
2017-09-24T13:46:43.729Z,8.25
2017-09-24T13:49:11.259Z,8.23
2017-09-24T13:51:38.768Z,8.68
2017-09-24T13:54:06.332Z,8.85
2017-09-24T13:56:33.839Z,8.80
2017-09-24T13:59:01.367Z,9.90
2017-09-24T14:01:29.671Z,9.90
2017-09-24T14:03:57.169Z,9.32
2017-09-24T14:06:24.731Z,9.93
2017-09-24T14:08:53.035Z,8.57
2017-09-24T14:11:21.311Z,9.05
2017-09-24T14:13:49.614Z,9.05
2017-09-24T14:16:17.122Z,9.98
2017-09-24T14:18:45.458Z,9.10
2017-09-24T14:21:12.959Z,11.82
2017-09-24T14:23:40.484Z,9.10
2017-09-24T14:26:08.020Z,9.20
2017-09-24T14:28:35.545Z,8.20
2017-09-24T14:31:03.078Z,8.00
2017-09-24T14:33:30.890Z,8.80
2017-09-24T14:35:58.431Z,8.50
2017-09-24T14:38:25.954Z,8.35
2017-09-24T14:40:53.462Z,9.57
2017-09-24T14:43:20.998Z,10.35
2017-09-24T14:45:48.502Z,9.88
2017-09-24T14:48:15.998Z,9.25
2017-09-24T14:50:43.520Z,9.35
2017-09-24T14:53:11.786Z,10.48
2017-09-24T14:55:39.311Z,8.25
2017-09-24T14:58:06.814Z,10.30
2017-09-24T15:00:34.305Z,8.48
2017-09-24T15:03:01.814Z,9.13
2017-09-24T15:05:29.355Z,8.35
2017-09-24T15:07:56.885Z,9.50
2017-09-24T15:10:24.387Z,8.65
2017-09-24T15:12:51.895Z,8.85
2017-09-24T15:15:19.466Z,8.85
2017-09-24T15:17:46.962Z,7.28
2017-09-24T15:20:14.485Z,9.23
2017-09-24T15:22:41.990Z,8.40
2017-09-24T15:25:09.532Z,9.13
2017-09-24T15:27:37.038Z,10.50
2017-09-24T15:30:04.532Z,9.10
2017-09-24T15:32:32.999Z,10.43
2017-09-24T15:35:01.201Z,9.45
2017-09-24T15:37:30.433Z,11.12
2017-09-24T15:39:59.430Z,9.70
2017-09-24T15:42:29.415Z,10.20
2017-09-24T15:44:56.946Z,11.38
2017-09-24T15:47:24.443Z,9.40
2017-09-24T15:49:51.997Z,9.35
2017-09-24T15:52:19.511Z,9.25
2017-09-24T15:54:47.069Z,15.40
2017-09-24T15:57:14.577Z,9.60
2017-09-24T15:59:42.094Z,11.15
2017-09-24T16:02:09.631Z,10.40
2017-09-24T16:04:37.910Z,9.65
2017-09-24T16:07:05.470Z,11.02
2017-09-24T16:09:33.746Z,11.45
2017-09-24T16:12:02.092Z,12.00
2017-09-24T16:14:29.654Z,10.18
2017-09-24T16:16:57.166Z,11.10
2017-09-24T16:19:24.703Z,10.93
2017-09-24T16:21:52.983Z,10.10
2017-09-24T16:24:20.546Z,9.57
2017-09-24T16:26:48.758Z,9.55
2017-09-24T16:29:17.068Z,10.50
2017-09-24T16:31:44.595Z,10.95
2017-09-24T16:34:12.110Z,9.68
2017-09-24T16:36:40.385Z,7.43
2017-09-24T16:39:08.664Z,8.57
2017-09-24T16:41:36.972Z,7.50
2017-09-24T16:44:04.466Z,6.70
2017-09-24T16:46:31.974Z,7.25
2017-09-24T16:48:59.514Z,6.85
2017-09-24T16:51:27.798Z,6.50
2017-09-24T16:53:56.142Z,7.80
2017-09-24T16:56:23.633Z,6.60
2017-09-24T16:58:51.939Z,6.55
2017-09-24T17:01:19.478Z,8.23
2017-09-24T17:03:46.983Z,8.75
2017-09-24T17:06:15.275Z,8.77
2017-09-24T17:08:43.574Z,9.77
2017-09-24T17:11:11.142Z,8.40
2017-09-24T17:13:38.642Z,9.57
2017-09-24T17:16:06.906Z,9.57
2017-09-24T17:18:35.205Z,9.30
2017-09-24T17:21:02.732Z,8.05
2017-09-24T17:23:30.258Z,7.93
2017-09-24T17:25:57.766Z,9.38
2017-09-24T17:28:26.129Z,8.10
2017-09-24T17:30:53.637Z,7.80
2017-09-24T17:33:21.249Z,9.50
2017-09-24T17:35:48.778Z,9.60
2017-09-24T17:38:16.283Z,9.90
2017-09-24T17:40:44.576Z,11.12
2017-09-24T17:43:12.085Z,12.23
2017-09-24T17:45:39.643Z,11.02
2017-09-24T17:48:07.163Z,12.88
2017-09-24T17:50:34.714Z,12.25
2017-09-24T17:53:02.242Z,15.20
2017-09-24T17:55:29.747Z,15.32
2017-09-24T17:57:57.292Z,13.77
2017-09-24T18:00:24.864Z,13.77
2017-09-24T18:02:52.417Z,15.85
2017-09-24T18:05:19.934Z,15.75
2017-09-24T18:07:47.515Z,14.05
2017-09-24T18:10:15.811Z,17.62
2017-09-24T18:12:43.342Z,15.02
2017-09-24T18:15:10.874Z,16.10
2017-09-24T18:17:38.374Z,16.20
2017-09-24T18:20:06.701Z,15.07
2017-09-24T18:22:34.301Z,14.15
2017-09-24T18:25:02.582Z,21.45
2017-09-24T18:27:30.890Z,15.48
2017-09-24T18:29:58.412Z,22.50
2017-09-24T18:32:25.951Z,20.77
2017-09-24T18:34:53.515Z,17.48
2017-09-24T18:37:21.083Z,16.00
2017-09-24T18:39:49.400Z,15.30
2017-09-24T18:42:16.920Z,13.52
2017-09-24T18:44:44.464Z,26.65
2017-09-24T18:47:11.972Z,17.33
2017-09-24T18:49:40.274Z,15.45
2017-09-24T18:52:07.810Z,16.48
2017-09-24T18:54:35.394Z,16.52
2017-09-24T18:57:02.907Z,15.40
2017-09-24T18:59:31.366Z,17.58
2017-09-24T19:01:58.908Z,17.87
2017-09-24T19:04:27.199Z,15.10
2017-09-24T19:06:54.727Z,18.00
2017-09-24T19:09:22.238Z,18.08
2017-09-24T19:11:49.869Z,14.55
2017-09-24T19:14:17.400Z,15.00
2017-09-24T19:16:45.742Z,14.50
2017-09-24T19:19:13.414Z,24.52
2017-09-24T19:21:41.722Z,15.13
2017-09-24T19:24:09.242Z,14.07
2017-09-24T19:26:36.759Z,18.73
2017-09-24T19:29:04.323Z,17.08
2017-09-24T19:31:31.841Z,18.98
2017-09-24T19:34:00.136Z,16.20
2017-09-24T19:36:27.651Z,14.35
2017-09-24T19:38:55.192Z,13.55
2017-09-24T19:41:22.759Z,14.25
2017-09-24T19:43:50.305Z,14.87
2017-09-24T19:46:17.820Z,12.15
2017-09-24T19:48:45.350Z,17.65
2017-09-24T19:51:12.856Z,14.50
2017-09-24T19:53:42.019Z,14.68
2017-09-24T19:56:10.312Z,14.38
2017-09-24T19:58:37.838Z,21.73
2017-09-24T20:01:05.371Z,14.55
2017-09-24T20:03:33.070Z,15.48
2017-09-24T20:06:00.599Z,15.20
2017-09-24T20:08:29.105Z,15.18
2017-09-24T20:10:56.698Z,16.10
2017-09-24T20:13:24.222Z,15.02
2017-09-24T20:15:51.785Z,16.30
2017-09-24T20:18:19.288Z,15.15
2017-09-24T20:20:46.854Z,14.48
2017-09-24T20:23:14.360Z,14.80
2017-09-24T20:25:41.883Z,16.77
2017-09-24T20:28:09.386Z,16.15
2017-09-24T20:30:36.978Z,17.08
2017-09-24T20:33:04.489Z,15.48
2017-09-24T20:35:32.048Z,15.40
2017-09-24T20:37:59.565Z,15.20
2017-09-24T20:40:27.109Z,15.80
2017-09-24T20:42:54.612Z,14.82
2017-09-24T20:45:22.142Z,14.07
2017-09-24T20:47:49.699Z,15.63
2017-09-24T20:50:17.275Z,15.55
2017-09-24T20:52:45.245Z,15.05
2017-09-24T20:55:12.807Z,15.73
2017-09-24T20:57:40.310Z,17.48
2017-09-24T21:00:07.843Z,17.20
2017-09-24T21:02:35.353Z,16.30
2017-09-24T21:05:02.873Z,16.77
2017-09-24T21:07:30.402Z,16.92
2017-09-24T21:09:57.914Z,16.33
2017-09-24T21:12:26.209Z,17.10
2017-09-24T21:14:53.734Z,16.20
2017-09-24T21:17:21.304Z,18.10
2017-09-24T21:19:48.810Z,16.25
2017-09-24T21:22:16.339Z,18.23
2017-09-24T21:24:44.601Z,17.40
2017-09-24T21:27:12.902Z,16.50
2017-09-24T21:29:40.427Z,16.20
2017-09-24T21:32:07.957Z,16.73
2017-09-24T21:34:35.472Z,18.15
2017-09-24T21:37:02.997Z,16.90
2017-09-24T21:39:30.496Z,16.05
2017-09-24T21:41:58.013Z,15.07
2017-09-24T21:44:25.533Z,16.25
2017-09-24T21:46:53.049Z,17.45
2017-09-24T21:49:20.553Z,15.40
2017-09-24T21:51:48.087Z,17.42
2017-09-24T21:54:16.380Z,17.25
2017-09-24T21:56:44.141Z,15.30
2017-09-24T21:59:11.659Z,14.77
2017-09-24T22:01:39.230Z,16.65
2017-09-24T22:04:06.761Z,15.77
2017-09-24T22:06:34.262Z,15.82
2017-09-24T22:09:02.734Z,17.23
2017-09-24T22:11:31.063Z,15.27
2017-09-24T22:13:58.633Z,15.98
2017-09-24T22:16:26.177Z,16.20
2017-09-24T22:18:53.707Z,15.30
2017-09-24T22:21:21.978Z,14.50
2017-09-24T22:23:50.270Z,14.75
2017-09-24T22:26:17.782Z,15.80
2017-09-24T22:28:45.320Z,16.35
2017-09-24T22:31:12.821Z,15.30
2017-09-24T22:33:40.342Z,16.00
2017-09-24T22:36:07.849Z,15.07
2017-09-24T22:38:35.382Z,16.37
2017-09-24T22:41:02.882Z,15.73
2017-09-24T22:43:30.409Z,14.20
2017-09-24T22:45:58.702Z,15.38
2017-09-24T22:48:26.993Z,14.48
2017-09-24T22:50:54.502Z,13.95
2017-09-24T22:53:22.077Z,15.52
2017-09-24T22:55:49.583Z,14.65
2017-09-24T22:58:17.121Z,15.05
2017-09-24T23:00:45.393Z,13.90
2017-09-24T23:03:13.659Z,14.15
2017-09-24T23:05:41.947Z,14.00
2017-09-24T23:08:10.225Z,14.65
2017-09-24T23:10:38.506Z,14.35
2017-09-24T23:13:06.792Z,13.55
2017-09-24T23:15:34.306Z,14.50
2017-09-24T23:18:01.827Z,13.75
2017-09-24T23:20:30.113Z,13.57
2017-09-24T23:22:57.632Z,14.23
2017-09-24T23:25:25.912Z,16.23
2017-09-24T23:27:54.185Z,13.62
2017-09-24T23:30:22.466Z,15.60
2017-09-24T23:32:49.984Z,14.15
2017-09-24T23:35:17.522Z,15.07
2017-09-24T23:37:45.043Z,14.20
2017-09-24T23:40:13.337Z,14.35
2017-09-24T23:42:40.876Z,14.32
2017-09-24T23:45:09.157Z,13.90
2017-09-24T23:47:37.434Z,13.20
2017-09-24T23:50:05.727Z,12.70
2017-09-24T23:52:33.240Z,13.73
2017-09-24T23:55:00.761Z,12.32
2017-09-24T23:57:28.266Z,14.45
2017-09-24T23:59:55.815Z,12.32
